»·PEaware :: N8760F KLAS-KLAX

N8760F :: KLAS-KLAX

FLIGHT INFORMATION

Flight Status: Arrived
Operator: Privately registered:
United States
More flights under this callsign
Pilot: Robert W. (5310)
Aircraft: BOEING 737-500
(B735)
More flights by this aircraft type
Origin: KLAS McCarran Intl
United States
Destination: KLAX Los Angeles Intl
United States
More flights between these airports :: More routes between these airports
Route: +BOACH5 HEC RIIVR2
File this flight plan on PilotEdge
Remarks:
Altitude:
(Current/Filed)
28,000ft
Speed:
(Current/Filed)
500kts
Departed: 22-Feb-15 09:12 PM
Arrived: 22-Feb-15 09:58 PM
Distance/Time
Traveled:
205nm/0:46
Distance/Time
To Go:
Arrived

Flight Plot

Page will automatically refresh every two minutes.


Map Options




Map Legend


Flown Route
Filed Route
Departure Airport
Arrival Airport
Navaid (VOR, NDB)
Fix

Horizontal Profiles

Position Reports

Time Latitude Longitude Heading Altitude Ground
Speed
22-Feb-15 20:49 36.079594 -115.146274 346 2188ft 0kts
22-Feb-15 20:50 36.079594 -115.146274 346 2188ft 0kts
22-Feb-15 20:51 36.079594 -115.146274 346 2188ft 0kts
22-Feb-15 20:52 36.079594 -115.146274 346 2188ft 0kts
22-Feb-15 20:53 36.079594 -115.146274 346 2188ft 0kts
22-Feb-15 20:54 36.079594 -115.146274 346 2188ft 0kts
22-Feb-15 20:55 36.079594 -115.146274 346 2188ft 0kts
22-Feb-15 20:56 36.079594 -115.146274 346 2188ft 0kts
22-Feb-15 20:57 36.079594 -115.146274 346 2188ft 0kts
22-Feb-15 20:58 36.079594 -115.146274 346 2188ft 0kts
22-Feb-15 20:59 36.079263 -115.146181 346 2188ft 0kts
22-Feb-15 21:00 36.079130 -115.146866 237 2188ft 8kts
22-Feb-15 21:01 36.078624 -115.148549 277 2188ft 0kts
22-Feb-15 21:02 36.078480 -115.150920 225 2188ft 0kts
22-Feb-15 21:03 36.077951 -115.154584 269 2188ft 27kts
22-Feb-15 21:04 36.078001 -115.163260 270 2188ft 11kts
22-Feb-15 21:05 36.078010 -115.163963 270 2188ft 0kts
22-Feb-15 21:06 36.083411 -115.162108 24 2188ft 102kts
22-Feb-15 21:07 36.133274 -115.145384 338 3648ft 244kts
22-Feb-15 21:08 36.139123 -115.219921 244 5046ft 242kts
22-Feb-15 21:09 36.110311 -115.293830 215 4986ft 237kts
22-Feb-15 21:10 36.045489 -115.322148 201 6240ft 259kts
22-Feb-15 21:11 35.974503 -115.354279 201 9025ft 284kts
22-Feb-15 21:12 35.902238 -115.360287 140 12258ft 261kts
22-Feb-15 21:13 35.828374 -115.332740 172 13499ft 317kts
22-Feb-15 21:14 35.735352 -115.307965 169 15957ft 343kts
22-Feb-15 21:15 35.643471 -115.302166 216 18431ft 336kts
22-Feb-15 21:16 35.586210 -115.397607 231 20075ft 368kts
22-Feb-15 21:17 35.518377 -115.501206 228 21615ft 395kts
22-Feb-15 21:18 35.445415 -115.603803 228 22975ft 398kts
22-Feb-15 21:19 35.370951 -115.704987 227 22985ft 400kts
22-Feb-15 21:20 35.295957 -115.805390 228 22979ft 400kts
22-Feb-15 21:21 35.220333 -115.905925 229 22970ft 401kts
22-Feb-15 21:22 35.144461 -116.006353 229 22968ft 401kts
22-Feb-15 21:23 35.068384 -116.106670 229 23288ft 405kts
22-Feb-15 21:24 34.991438 -116.207826 229 25012ft 409kts
22-Feb-15 21:25 34.916265 -116.306293 229 27556ft 388kts
22-Feb-15 21:26 34.842977 -116.402065 229 27888ft 383kts
22-Feb-15 21:27 34.765522 -116.491633 222 27902ft 386kts
22-Feb-15 21:28 34.681986 -116.570809 222 27882ft 366kts
22-Feb-15 21:29 34.602733 -116.645499 222 27894ft 358kts
22-Feb-15 21:30 34.524044 -116.719362 222 27905ft 358kts
22-Feb-15 21:31 34.445403 -116.793139 222 25027ft 365kts
22-Feb-15 21:32 34.362068 -116.871084 221 22015ft 385kts
22-Feb-15 21:33 34.277959 -116.949413 221 19029ft 379kts
22-Feb-15 21:34 34.195570 -117.025939 221 16932ft 367kts
22-Feb-15 21:35 34.132612 -117.115863 261 16899ft 345kts
22-Feb-15 21:36 34.074793 -117.196688 211 16927ft 358kts
22-Feb-15 21:37 34.040511 -117.292826 263 16914ft 341kts
22-Feb-15 21:38 34.032162 -117.396085 262 16476ft 277kts
22-Feb-15 21:39 34.024167 -117.486241 262 15821ft 269kts
22-Feb-15 21:40 34.016091 -117.573479 262 13903ft 259kts
22-Feb-15 21:41 34.007918 -117.659463 262 11835ft 256kts
22-Feb-15 21:42 33.999637 -117.744304 262 9987ft 247kts
22-Feb-15 21:43 33.991561 -117.826906 262 8883ft 252kts
22-Feb-15 21:44 33.983347 -117.910577 261 7013ft 244kts
22-Feb-15 21:45 33.975686 -117.987985 261 5569ft 227kts
22-Feb-15 21:46 33.969846 -118.062230 262 5020ft 222kts
22-Feb-15 21:47 33.963203 -118.132472 261 4539ft 189kts
22-Feb-15 21:48 33.957071 -118.192580 261 2636ft 175kts
22-Feb-15 21:49 33.950919 -118.252662 263 1941ft 184kts
22-Feb-15 21:50 33.944640 -118.314460 263 1285ft 182kts
22-Feb-15 21:51 33.938910 -118.370094 263 380ft 160kts
22-Feb-15 21:52 33.935188 -118.406970 265 133ft 18kts
22-Feb-15 21:53 33.935168 -118.407255 265 133ft 0kts
22-Feb-15 21:54 33.935168 -118.407255 265 133ft 0kts
22-Feb-15 21:55 33.935168 -118.407255 265 133ft 0kts
22-Feb-15 21:56 33.935168 -118.407255 265 133ft 0kts
22-Feb-15 21:57 33.935168 -118.407255 265 133ft 0kts
22-Feb-15 21:58 33.935168 -118.407255 265 133ft 0kts
22-Feb-15 21:59 33.935168 -118.407255 265 133ft 0kts
22-Feb-15 22:00 33.935168 -118.407255 265 133ft 0kts

Navigation Log

Ident Type
Flight plan parsing failed, navigation log unavailable